This is the latest recevied weather packets stored in our database for station/object VE3TEJ. If no packets are shown the sender has not sent any weather packets the latest 1 day(s).
| Time | Temp. | Humidity | Pressure | Rain* | Wind** | Luminosity | Snow |
|---|---|---|---|---|---|---|---|
| 1778014448 | 9.44° C | 78% | 1006.4 hPa | 0 mm | 0 m/s | - | - |
| 1778014148 | 9.44° C | 78% | 1006.3 hPa | 0 mm | 0.45 m/s, 282° | - | - |
| 1778013847 | 9.44° C | 78% | 1006.5 hPa | 0 mm | 0 m/s | - | - |
| 1778013547 | 9.44° C | 78% | 1006.6 hPa | 0 mm | 0 m/s | - | - |
| 1778013249 | 9.44° C | 77% | 1006.5 hPa | 0 mm | 0.45 m/s, 285° | - | - |
| 1778012948 | 9.44° C | 77% | 1006.6 hPa | 0 mm | 0.45 m/s, 285° | - | - |
| 1778012648 | 10° C | 78% | 1006.6 hPa | 0 mm | 0.45 m/s, 284° | - | - |
| 1778012347 | 9.44° C | 77% | 1006.7 hPa | 0 mm | 0.45 m/s, 282° | - | - |
| 1778012047 | 10° C | 78% | 1006.8 hPa | 0 mm | 0.45 m/s, 285° | - | - |
| 1778011749 | 9.44° C | 77% | 1006.6 hPa | 0 mm | 0 m/s | - | - |
| 1778011448 | 10° C | 77% | 1006.9 hPa | 0.25 mm | 0.45 m/s, 286° | - | - |
| 1778011148 | 10° C | 77% | 1006.7 hPa | 0.25 mm | 0.45 m/s, 281° | - | - |
| 1778010847 | 9.44° C | 78% | 1006.7 hPa | 0.51 mm | 0.45 m/s, 283° | - | - |
| 1778010547 | 10° C | 79% | 1006.5 hPa | 0.76 mm | 0 m/s | - | - |
| 1778010249 | 10° C | 80% | 1006.3 hPa | 0.76 mm | 0 m/s | - | - |
| 1778009948 | 10° C | 80% | 1006.3 hPa | 0.76 mm | 0 m/s | - | - |
| 1778009648 | 10° C | 81% | 1006.5 hPa | 0.76 mm | 0 m/s | - | - |
| 1778009347 | 9.44° C | 81% | 1006.4 hPa | 1.02 mm | 0 m/s | - | - |
| 1778009047 | 9.44° C | 81% | 1006.6 hPa | 1.02 mm | 0.45 m/s, 286° | - | - |
| 1778008748 | 9.44° C | 80% | 1006.6 hPa | 1.02 mm | 0.45 m/s, 285° | - | - |
| 1778008448 | 9.44° C | 81% | 1006.2 hPa | 1.02 mm | 0 m/s | - | - |
| 1778008148 | 9.44° C | 81% | 1006 hPa | 1.02 mm | 0 m/s | - | - |
| 1778007847 | 9.44° C | 80% | 1006 hPa | 0.76 mm | 0.45 m/s, 290° | - | - |
| 1778007549 | 9.44° C | 78% | 1006.2 hPa | 0.76 mm | 0.89 m/s, 308° | - | - |
| 1778007248 | 10° C | 75% | 1006.3 hPa | 0.51 mm | 0.45 m/s, 285° | - | - |
* Rain latest hour (hover to see other rain measurements)
** Current wind speed in m/s (hover to see current wind gust speed)